sensor_id;sensor_type;location;lat;lon;timestamp;P1;durP1;ratioP1;P2;durP2;ratioP2
47287;SDS011;33020;53.008;13.558;2022-12-16T00:00:04;38.90;;;20.77;;
47287;SDS011;33020;53.008;13.558;2022-12-16T00:02:34;41.87;;;20.77;;
47287;SDS011;33020;53.008;13.558;2022-12-16T00:05:07;41.63;;;18.97;;
47287;SDS011;33020;53.008;13.558;2022-12-16T00:10:08;38.40;;;18.53;;
47287;SDS011;33020;53.008;13.558;2022-12-16T00:12:34;40.73;;;20.20;;
47287;SDS011;33020;53.008;13.558;2022-12-16T00:15:01;39.90;;;20.50;;
47287;SDS011;33020;53.008;13.558;2022-12-16T00:17:28;40.30;;;20.10;;
47287;SDS011;33020;53.008;13.558;2022-12-16T00:19:54;40.57;;;18.80;;
47287;SDS011;33020;53.008;13.558;2022-12-16T00:22:21;39.70;;;18.53;;
47287;SDS011;33020;53.008;13.558;2022-12-16T00:24:48;41.53;;;18.60;;
47287;SDS011;33020;53.008;13.558;2022-12-16T00:27:15;38.17;;;18.73;;
47287;SDS011;33020;53.008;13.558;2022-12-16T00:29:42;38.67;;;19.30;;
47287;SDS011;33020;53.008;13.558;2022-12-16T00:32:12;41.60;;;18.93;;
47287;SDS011;33020;53.008;13.558;2022-12-16T00:34:39;35.50;;;17.67;;
47287;SDS011;33020;53.008;13.558;2022-12-16T00:37:09;40.70;;;19.20;;
47287;SDS011;33020;53.008;13.558;2022-12-16T00:39:37;34.07;;;17.13;;
47287;SDS011;33020;53.008;13.558;2022-12-16T00:42:04;34.87;;;17.70;;
47287;SDS011;33020;53.008;13.558;2022-12-16T00:44:37;35.47;;;17.90;;
47287;SDS011;33020;53.008;13.558;2022-12-16T00:47:06;36.50;;;17.03;;
47287;SDS011;33020;53.008;13.558;2022-12-16T00:49:33;35.13;;;18.23;;
47287;SDS011;33020;53.008;13.558;2022-12-16T00:52:01;36.87;;;17.23;;
47287;SDS011;33020;53.008;13.558;2022-12-16T00:54:27;39.27;;;17.60;;
47287;SDS011;33020;53.008;13.558;2022-12-16T00:56:56;35.23;;;18.13;;
47287;SDS011;33020;53.008;13.558;2022-12-16T00:59:23;37.93;;;17.00;;
47287;SDS011;33020;53.008;13.558;2022-12-16T01:01:53;37.73;;;17.80;;
47287;SDS011;33020;53.008;13.558;2022-12-16T01:04:22;35.33;;;16.40;;
47287;SDS011;33020;53.008;13.558;2022-12-16T01:06:51;36.37;;;17.63;;
47287;SDS011;33020;53.008;13.558;2022-12-16T01:09:20;38.37;;;18.03;;
47287;SDS011;33020;53.008;13.558;2022-12-16T01:11:47;35.33;;;18.60;;
47287;SDS011;33020;53.008;13.558;2022-12-16T01:14:13;38.70;;;17.17;;
47287;SDS011;33020;53.008;13.558;2022-12-16T01:16:40;33.67;;;16.77;;
47287;SDS011;33020;53.008;13.558;2022-12-16T01:19:07;31.53;;;15.67;;
47287;SDS011;33020;53.008;13.558;2022-12-16T01:21:34;32.97;;;17.80;;
47287;SDS011;33020;53.008;13.558;2022-12-16T01:24:01;34.83;;;17.30;;
47287;SDS011;33020;53.008;13.558;2022-12-16T01:26:28;33.83;;;17.27;;
47287;SDS011;33020;53.008;13.558;2022-12-16T01:28:55;36.57;;;16.83;;
47287;SDS011;33020;53.008;13.558;2022-12-16T01:31:22;34.30;;;17.00;;
47287;SDS011;33020;53.008;13.558;2022-12-16T01:33:49;32.33;;;16.00;;
47287;SDS011;33020;53.008;13.558;2022-12-16T01:36:16;36.93;;;16.67;;
47287;SDS011;33020;53.008;13.558;2022-12-16T01:38:44;35.37;;;16.70;;
47287;SDS011;33020;53.008;13.558;2022-12-16T01:41:12;38.00;;;16.67;;
47287;SDS011;33020;53.008;13.558;2022-12-16T01:43:39;29.53;;;15.00;;
47287;SDS011;33020;53.008;13.558;2022-12-16T01:48:49;32.97;;;15.50;;
47287;SDS011;33020;53.008;13.558;2022-12-16T01:53:53;35.33;;;16.27;;
47287;SDS011;33020;53.008;13.558;2022-12-16T01:56:22;34.40;;;16.53;;
47287;SDS011;33020;53.008;13.558;2022-12-16T01:58:50;33.20;;;15.33;;
47287;SDS011;33020;53.008;13.558;2022-12-16T02:01:17;36.23;;;15.63;;
47287;SDS011;33020;53.008;13.558;2022-12-16T02:03:44;30.70;;;16.27;;
47287;SDS011;33020;53.008;13.558;2022-12-16T02:06:12;31.23;;;16.40;;
47287;SDS011;33020;53.008;13.558;2022-12-16T02:08:38;33.60;;;16.03;;
47287;SDS011;33020;53.008;13.558;2022-12-16T02:11:07;34.80;;;17.40;;
47287;SDS011;33020;53.008;13.558;2022-12-16T02:25:37;28.67;;;15.80;;
47287;SDS011;33020;53.008;13.558;2022-12-16T02:30:59;29.93;;;15.50;;
47287;SDS011;33020;53.008;13.558;2022-12-16T02:33:55;34.47;;;14.97;;
47287;SDS011;33020;53.008;13.558;2022-12-16T02:36:43;31.80;;;16.37;;
47287;SDS011;33020;53.008;13.558;2022-12-16T02:40:00;35.83;;;16.27;;
47287;SDS011;33020;53.008;13.558;2022-12-16T02:42:28;35.53;;;15.97;;
47287;SDS011;33020;53.008;13.558;2022-12-16T02:45:08;29.57;;;15.07;;
47287;SDS011;33020;53.008;13.558;2022-12-16T02:47:38;32.27;;;15.30;;
47287;SDS011;33020;53.008;13.558;2022-12-16T02:50:22;31.93;;;16.37;;
47287;SDS011;33020;53.008;13.558;2022-12-16T02:52:52;35.77;;;16.07;;
47287;SDS011;33020;53.008;13.558;2022-12-16T02:55:21;31.07;;;15.30;;
47287;SDS011;33020;53.008;13.558;2022-12-16T03:00:33;33.13;;;14.87;;
47287;SDS011;33020;53.008;13.558;2022-12-16T03:03:19;43.40;;;18.35;;
47287;SDS011;33020;53.008;13.558;2022-12-16T03:05:50;305.50;;;108.63;;
47287;SDS011;33020;53.008;13.558;2022-12-16T03:08:19;350.47;;;132.60;;
47287;SDS011;33020;53.008;13.558;2022-12-16T03:10:54;93.37;;;39.60;;
47287;SDS011;33020;53.008;13.558;2022-12-16T03:13:22;49.55;;;21.77;;
47287;SDS011;33020;53.008;13.558;2022-12-16T03:15:51;47.00;;;21.33;;
47287;SDS011;33020;53.008;13.558;2022-12-16T03:18:26;42.33;;;18.50;;
47287;SDS011;33020;53.008;13.558;2022-12-16T03:20:56;34.53;;;16.97;;
47287;SDS011;33020;53.008;13.558;2022-12-16T03:23:30;30.67;;;14.85;;
47287;SDS011;33020;53.008;13.558;2022-12-16T03:26:01;31.20;;;14.93;;
47287;SDS011;33020;53.008;13.558;2022-12-16T03:31:02;30.93;;;15.33;;
47287;SDS011;33020;53.008;13.558;2022-12-16T03:33:39;29.77;;;14.90;;
47287;SDS011;33020;53.008;13.558;2022-12-16T03:36:15;33.37;;;15.67;;
47287;SDS011;33020;53.008;13.558;2022-12-16T03:38:46;35.20;;;15.37;;
47287;SDS011;33020;53.008;13.558;2022-12-16T03:41:16;31.57;;;14.20;;
47287;SDS011;33020;53.008;13.558;2022-12-16T03:43:44;39.37;;;15.63;;
47287;SDS011;33020;53.008;13.558;2022-12-16T03:46:14;39.43;;;16.67;;
47287;SDS011;33020;53.008;13.558;2022-12-16T03:48:53;33.97;;;15.60;;
47287;SDS011;33020;53.008;13.558;2022-12-16T03:51:19;38.00;;;16.30;;
47287;SDS011;33020;53.008;13.558;2022-12-16T03:53:46;38.33;;;16.37;;
47287;SDS011;33020;53.008;13.558;2022-12-16T03:56:13;33.23;;;15.47;;
47287;SDS011;33020;53.008;13.558;2022-12-16T03:58:39;35.27;;;14.57;;
47287;SDS011;33020;53.008;13.558;2022-12-16T04:01:07;31.50;;;14.50;;
47287;SDS011;33020;53.008;13.558;2022-12-16T04:03:35;32.50;;;15.07;;
47287;SDS011;33020;53.008;13.558;2022-12-16T04:06:03;27.87;;;14.43;;
47287;SDS011;33020;53.008;13.558;2022-12-16T04:08:30;28.23;;;14.30;;
47287;SDS011;33020;53.008;13.558;2022-12-16T04:10:57;35.67;;;14.10;;
47287;SDS011;33020;53.008;13.558;2022-12-16T04:13:42;31.27;;;15.07;;
47287;SDS011;33020;53.008;13.558;2022-12-16T04:16:28;36.37;;;14.70;;
47287;SDS011;33020;53.008;13.558;2022-12-16T04:19:24;36.63;;;15.00;;
47287;SDS011;33020;53.008;13.558;2022-12-16T04:22:32;28.37;;;13.77;;
47287;SDS011;33020;53.008;13.558;2022-12-16T04:25:26;29.90;;;14.77;;
47287;SDS011;33020;53.008;13.558;2022-12-16T04:27:56;32.17;;;14.90;;
47287;SDS011;33020;53.008;13.558;2022-12-16T04:30:24;30.23;;;14.67;;
47287;SDS011;33020;53.008;13.558;2022-12-16T04:32:54;30.57;;;14.10;;
47287;SDS011;33020;53.008;13.558;2022-12-16T04:35:50;30.90;;;14.63;;
47287;SDS011;33020;53.008;13.558;2022-12-16T04:38:35;34.00;;;14.90;;
47287;SDS011;33020;53.008;13.558;2022-12-16T04:41:20;31.27;;;14.57;;
47287;SDS011;33020;53.008;13.558;2022-12-16T04:44:06;26.07;;;14.17;;
47287;SDS011;33020;53.008;13.558;2022-12-16T04:46:51;33.67;;;14.70;;
47287;SDS011;33020;53.008;13.558;2022-12-16T04:49:37;28.73;;;14.70;;
47287;SDS011;33020;53.008;13.558;2022-12-16T04:52:24;36.53;;;15.63;;
47287;SDS011;33020;53.008;13.558;2022-12-16T04:55:12;32.57;;;16.00;;
47287;SDS011;33020;53.008;13.558;2022-12-16T04:58:03;30.37;;;14.13;;
47287;SDS011;33020;53.008;13.558;2022-12-16T05:00:49;34.40;;;15.80;;
47287;SDS011;33020;53.008;13.558;2022-12-16T05:03:34;39.67;;;16.17;;
47287;SDS011;33020;53.008;13.558;2022-12-16T05:06:21;32.33;;;15.40;;
47287;SDS011;33020;53.008;13.558;2022-12-16T05:09:07;40.90;;;14.47;;
47287;SDS011;33020;53.008;13.558;2022-12-16T05:11:52;30.77;;;13.83;;
47287;SDS011;33020;53.008;13.558;2022-12-16T05:14:38;50.83;;;14.73;;
47287;SDS011;33020;53.008;13.558;2022-12-16T05:17:23;33.57;;;14.80;;
47287;SDS011;33020;53.008;13.558;2022-12-16T05:20:10;43.53;;;15.20;;
47287;SDS011;33020;53.008;13.558;2022-12-16T05:22:55;29.57;;;15.37;;
47287;SDS011;33020;53.008;13.558;2022-12-16T05:25:41;36.13;;;14.80;;
47287;SDS011;33020;53.008;13.558;2022-12-16T05:28:27;32.07;;;15.07;;
47287;SDS011;33020;53.008;13.558;2022-12-16T05:31:13;36.83;;;14.83;;
47287;SDS011;33020;53.008;13.558;2022-12-16T05:33:58;33.80;;;15.97;;
47287;SDS011;33020;53.008;13.558;2022-12-16T05:36:44;37.60;;;15.77;;
47287;SDS011;33020;53.008;13.558;2022-12-16T05:39:29;39.47;;;15.90;;
47287;SDS011;33020;53.008;13.558;2022-12-16T05:42:15;41.77;;;15.13;;
47287;SDS011;33020;53.008;13.558;2022-12-16T05:45:00;38.93;;;15.30;;
47287;SDS011;33020;53.008;13.558;2022-12-16T05:47:48;32.87;;;14.73;;
47287;SDS011;33020;53.008;13.558;2022-12-16T05:50:34;36.80;;;15.90;;
47287;SDS011;33020;53.008;13.558;2022-12-16T05:53:22;32.83;;;14.77;;
47287;SDS011;33020;53.008;13.558;2022-12-16T05:56:11;33.27;;;14.50;;
47287;SDS011;33020;53.008;13.558;2022-12-16T05:58:56;31.80;;;15.27;;
47287;SDS011;33020;53.008;13.558;2022-12-16T06:01:42;32.23;;;13.67;;
47287;SDS011;33020;53.008;13.558;2022-12-16T06:04:30;30.07;;;12.80;;
47287;SDS011;33020;53.008;13.558;2022-12-16T06:07:16;35.50;;;15.37;;
47287;SDS011;33020;53.008;13.558;2022-12-16T06:10:03;31.43;;;14.33;;
47287;SDS011;33020;53.008;13.558;2022-12-16T06:12:48;32.63;;;14.13;;
47287;SDS011;33020;53.008;13.558;2022-12-16T06:15:34;37.73;;;14.73;;
47287;SDS011;33020;53.008;13.558;2022-12-16T06:18:19;35.50;;;14.67;;
47287;SDS011;33020;53.008;13.558;2022-12-16T06:21:05;28.13;;;14.63;;
47287;SDS011;33020;53.008;13.558;2022-12-16T06:23:50;28.90;;;14.67;;
47287;SDS011;33020;53.008;13.558;2022-12-16T06:26:37;33.77;;;14.53;;
47287;SDS011;33020;53.008;13.558;2022-12-16T06:29:22;33.20;;;14.87;;
47287;SDS011;33020;53.008;13.558;2022-12-16T06:32:08;28.50;;;15.00;;
47287;SDS011;33020;53.008;13.558;2022-12-16T06:34:53;28.67;;;14.23;;
47287;SDS011;33020;53.008;13.558;2022-12-16T06:37:39;41.33;;;16.17;;
47287;SDS011;33020;53.008;13.558;2022-12-16T06:40:24;32.13;;;15.33;;
47287;SDS011;33020;53.008;13.558;2022-12-16T06:43:09;33.93;;;15.43;;
47287;SDS011;33020;53.008;13.558;2022-12-16T06:45:55;30.77;;;14.40;;
47287;SDS011;33020;53.008;13.558;2022-12-16T06:48:44;40.30;;;17.37;;
47287;SDS011;33020;53.008;13.558;2022-12-16T06:51:31;31.97;;;14.87;;
47287;SDS011;33020;53.008;13.558;2022-12-16T06:54:17;32.53;;;15.10;;
47287;SDS011;33020;53.008;13.558;2022-12-16T06:57:02;38.80;;;15.40;;
47287;SDS011;33020;53.008;13.558;2022-12-16T06:59:47;32.97;;;14.83;;
47287;SDS011;33020;53.008;13.558;2022-12-16T07:02:33;31.63;;;16.23;;
47287;SDS011;33020;53.008;13.558;2022-12-16T07:05:19;34.33;;;16.07;;
47287;SDS011;33020;53.008;13.558;2022-12-16T07:08:04;36.43;;;16.33;;
47287;SDS011;33020;53.008;13.558;2022-12-16T07:10:50;35.17;;;15.47;;
47287;SDS011;33020;53.008;13.558;2022-12-16T07:13:44;37.67;;;17.40;;
47287;SDS011;33020;53.008;13.558;2022-12-16T07:16:30;43.13;;;17.33;;
47287;SDS011;33020;53.008;13.558;2022-12-16T07:19:16;36.53;;;17.00;;
47287;SDS011;33020;53.008;13.558;2022-12-16T07:22:03;37.53;;;16.43;;
47287;SDS011;33020;53.008;13.558;2022-12-16T07:24:49;34.50;;;15.67;;
47287;SDS011;33020;53.008;13.558;2022-12-16T07:27:34;36.77;;;15.73;;
47287;SDS011;33020;53.008;13.558;2022-12-16T07:30:20;35.93;;;16.43;;
47287;SDS011;33020;53.008;13.558;2022-12-16T07:33:05;31.40;;;16.40;;
47287;SDS011;33020;53.008;13.558;2022-12-16T07:35:51;33.40;;;17.57;;
47287;SDS011;33020;53.008;13.558;2022-12-16T07:38:36;34.47;;;16.60;;
47287;SDS011;33020;53.008;13.558;2022-12-16T07:41:22;34.07;;;17.03;;
47287;SDS011;33020;53.008;13.558;2022-12-16T07:44:07;41.77;;;17.10;;
47287;SDS011;33020;53.008;13.558;2022-12-16T07:46:53;28.87;;;16.40;;
47287;SDS011;33020;53.008;13.558;2022-12-16T07:49:38;39.63;;;17.37;;
47287;SDS011;33020;53.008;13.558;2022-12-16T07:52:24;33.03;;;16.87;;
47287;SDS011;33020;53.008;13.558;2022-12-16T07:55:09;37.80;;;17.60;;
47287;SDS011;33020;53.008;13.558;2022-12-16T07:57:54;33.07;;;16.10;;
47287;SDS011;33020;53.008;13.558;2022-12-16T08:00:39;34.43;;;17.10;;
47287;SDS011;33020;53.008;13.558;2022-12-16T08:03:31;36.60;;;18.47;;
47287;SDS011;33020;53.008;13.558;2022-12-16T08:06:18;39.47;;;17.50;;
47287;SDS011;33020;53.008;13.558;2022-12-16T08:09:05;53.93;;;21.40;;
47287;SDS011;33020;53.008;13.558;2022-12-16T08:11:51;40.23;;;18.80;;
47287;SDS011;33020;53.008;13.558;2022-12-16T08:14:36;46.27;;;22.00;;
47287;SDS011;33020;53.008;13.558;2022-12-16T08:17:21;43.90;;;19.90;;
47287;SDS011;33020;53.008;13.558;2022-12-16T08:20:07;45.27;;;22.10;;
47287;SDS011;33020;53.008;13.558;2022-12-16T08:22:52;40.73;;;19.70;;
47287;SDS011;33020;53.008;13.558;2022-12-16T08:25:38;38.70;;;18.27;;
47287;SDS011;33020;53.008;13.558;2022-12-16T08:28:23;40.93;;;18.27;;
47287;SDS011;33020;53.008;13.558;2022-12-16T08:31:08;77.13;;;23.77;;
47287;SDS011;33020;53.008;13.558;2022-12-16T08:33:53;47.20;;;18.93;;
47287;SDS011;33020;53.008;13.558;2022-12-16T08:36:39;41.23;;;18.67;;
47287;SDS011;33020;53.008;13.558;2022-12-16T08:39:24;43.47;;;16.93;;
47287;SDS011;33020;53.008;13.558;2022-12-16T08:42:09;40.43;;;19.07;;
47287;SDS011;33020;53.008;13.558;2022-12-16T08:44:55;44.63;;;19.33;;
47287;SDS011;33020;53.008;13.558;2022-12-16T08:47:40;41.10;;;17.67;;
47287;SDS011;33020;53.008;13.558;2022-12-16T08:50:25;47.07;;;20.77;;
47287;SDS011;33020;53.008;13.558;2022-12-16T08:53:10;41.80;;;18.40;;
47287;SDS011;33020;53.008;13.558;2022-12-16T08:55:56;38.50;;;19.37;;
47287;SDS011;33020;53.008;13.558;2022-12-16T08:58:41;47.77;;;22.23;;
47287;SDS011;33020;53.008;13.558;2022-12-16T09:01:27;47.53;;;22.23;;
47287;SDS011;33020;53.008;13.558;2022-12-16T09:04:12;44.23;;;21.30;;
47287;SDS011;33020;53.008;13.558;2022-12-16T09:06:58;41.97;;;20.40;;
47287;SDS011;33020;53.008;13.558;2022-12-16T09:09:43;53.03;;;23.50;;
47287;SDS011;33020;53.008;13.558;2022-12-16T09:12:28;41.83;;;20.37;;
47287;SDS011;33020;53.008;13.558;2022-12-16T09:15:14;43.83;;;20.47;;
47287;SDS011;33020;53.008;13.558;2022-12-16T09:17:59;49.03;;;19.87;;
47287;SDS011;33020;53.008;13.558;2022-12-16T09:20:44;43.40;;;19.13;;
47287;SDS011;33020;53.008;13.558;2022-12-16T09:23:29;42.03;;;18.63;;
47287;SDS011;33020;53.008;13.558;2022-12-16T09:26:15;36.40;;;17.53;;
47287;SDS011;33020;53.008;13.558;2022-12-16T09:29:00;43.40;;;18.10;;
47287;SDS011;33020;53.008;13.558;2022-12-16T09:31:46;36.70;;;18.90;;
47287;SDS011;33020;53.008;13.558;2022-12-16T09:34:31;43.73;;;20.10;;
47287;SDS011;33020;53.008;13.558;2022-12-16T09:37:16;38.40;;;18.90;;
47287;SDS011;33020;53.008;13.558;2022-12-16T09:40:02;49.13;;;21.77;;
47287;SDS011;33020;53.008;13.558;2022-12-16T09:43:37;46.37;;;21.40;;
47287;SDS011;33020;53.008;13.558;2022-12-16T09:46:06;43.57;;;19.50;;
47287;SDS011;33020;53.008;13.558;2022-12-16T09:49:04;42.10;;;19.90;;
47287;SDS011;33020;53.008;13.558;2022-12-16T09:52:14;43.37;;;21.77;;
47287;SDS011;33020;53.008;13.558;2022-12-16T09:55:02;44.23;;;21.00;;
47287;SDS011;33020;53.008;13.558;2022-12-16T09:57:48;42.53;;;22.37;;
47287;SDS011;33020;53.008;13.558;2022-12-16T10:00:34;54.43;;;23.80;;
47287;SDS011;33020;53.008;13.558;2022-12-16T10:03:26;46.40;;;22.40;;
47287;SDS011;33020;53.008;13.558;2022-12-16T10:15:51;55.47;;;25.40;;
47287;SDS011;33020;53.008;13.558;2022-12-16T10:22:10;54.57;;;23.30;;
47287;SDS011;33020;53.008;13.558;2022-12-16T10:25:04;48.80;;;22.40;;
47287;SDS011;33020;53.008;13.558;2022-12-16T10:27:58;53.63;;;25.43;;
47287;SDS011;33020;53.008;13.558;2022-12-16T10:30:50;48.17;;;25.50;;
47287;SDS011;33020;53.008;13.558;2022-12-16T10:33:36;56.00;;;25.90;;
47287;SDS011;33020;53.008;13.558;2022-12-16T10:36:21;51.43;;;24.93;;
47287;SDS011;33020;53.008;13.558;2022-12-16T10:42:18;52.73;;;26.07;;
47287;SDS011;33020;53.008;13.558;2022-12-16T10:45:10;59.43;;;27.33;;
47287;SDS011;33020;53.008;13.558;2022-12-16T10:48:22;53.80;;;25.53;;
47287;SDS011;33020;53.008;13.558;2022-12-16T10:51:23;52.00;;;25.47;;
47287;SDS011;33020;53.008;13.558;2022-12-16T11:00:21;57.23;;;27.20;;
47287;SDS011;33020;53.008;13.558;2022-12-16T11:03:29;63.57;;;28.03;;
47287;SDS011;33020;53.008;13.558;2022-12-16T11:06:27;58.40;;;26.73;;
47287;SDS011;33020;53.008;13.558;2022-12-16T11:12:15;57.30;;;28.17;;
47287;SDS011;33020;53.008;13.558;2022-12-16T11:18:12;56.30;;;26.73;;
47287;SDS011;33020;53.008;13.558;2022-12-16T11:21:06;62.10;;;28.47;;
47287;SDS011;33020;53.008;13.558;2022-12-16T11:24:03;57.80;;;26.97;;
47287;SDS011;33020;53.008;13.558;2022-12-16T11:27:03;49.53;;;25.07;;
47287;SDS011;33020;53.008;13.558;2022-12-16T11:30:15;53.67;;;26.27;;
47287;SDS011;33020;53.008;13.558;2022-12-16T11:33:14;59.70;;;27.57;;
47287;SDS011;33020;53.008;13.558;2022-12-16T11:38:58;58.10;;;27.67;;
47287;SDS011;33020;53.008;13.558;2022-12-16T11:41:44;53.97;;;27.50;;
47287;SDS011;33020;53.008;13.558;2022-12-16T11:44:42;56.97;;;25.37;;
47287;SDS011;33020;53.008;13.558;2022-12-16T11:47:35;54.77;;;26.43;;
47287;SDS011;33020;53.008;13.558;2022-12-16T11:53:29;52.80;;;23.43;;
47287;SDS011;33020;53.008;13.558;2022-12-16T11:56:19;53.33;;;25.93;;
47287;SDS011;33020;53.008;13.558;2022-12-16T11:59:09;55.57;;;25.53;;
47287;SDS011;33020;53.008;13.558;2022-12-16T12:02:10;53.10;;;27.07;;
47287;SDS011;33020;53.008;13.558;2022-12-16T12:04:58;50.33;;;25.90;;
47287;SDS011;33020;53.008;13.558;2022-12-16T12:07:55;54.70;;;26.83;;
47287;SDS011;33020;53.008;13.558;2022-12-16T12:11:05;53.23;;;25.33;;
47287;SDS011;33020;53.008;13.558;2022-12-16T12:13:57;62.70;;;27.50;;
47287;SDS011;33020;53.008;13.558;2022-12-16T12:23:19;55.43;;;27.83;;
47287;SDS011;33020;53.008;13.558;2022-12-16T12:26:15;60.17;;;26.83;;
47287;SDS011;33020;53.008;13.558;2022-12-16T12:32:14;55.38;;;25.65;;
47287;SDS011;33020;53.008;13.558;2022-12-16T12:41:26;53.40;;;25.83;;
47287;SDS011;33020;53.008;13.558;2022-12-16T12:47:23;53.70;;;26.37;;
47287;SDS011;33020;53.008;13.558;2022-12-16T12:50:46;54.03;;;26.27;;
47287;SDS011;33020;53.008;13.558;2022-12-16T12:53:41;53.60;;;26.47;;
47287;SDS011;33020;53.008;13.558;2022-12-16T12:56:46;55.77;;;26.90;;
47287;SDS011;33020;53.008;13.558;2022-12-16T12:59:49;53.03;;;27.40;;
47287;SDS011;33020;53.008;13.558;2022-12-16T13:05:49;54.47;;;26.53;;
47287;SDS011;33020;53.008;13.558;2022-12-16T13:11:33;57.00;;;27.33;;
47287;SDS011;33020;53.008;13.558;2022-12-16T13:17:21;55.30;;;26.65;;
47287;SDS011;33020;53.008;13.558;2022-12-16T13:26:23;58.80;;;27.77;;
47287;SDS011;33020;53.008;13.558;2022-12-16T13:31:58;49.40;;;26.93;;
47287;SDS011;33020;53.008;13.558;2022-12-16T13:34:57;57.70;;;27.43;;
47287;SDS011;33020;53.008;13.558;2022-12-16T13:37:51;52.93;;;27.57;;
47287;SDS011;33020;53.008;13.558;2022-12-16T13:40:54;56.00;;;27.93;;
47287;SDS011;33020;53.008;13.558;2022-12-16T13:43:53;55.60;;;29.53;;
47287;SDS011;33020;53.008;13.558;2022-12-16T13:46:40;58.83;;;29.33;;
47287;SDS011;33020;53.008;13.558;2022-12-16T13:52:28;56.70;;;26.67;;
47287;SDS011;33020;53.008;13.558;2022-12-16T13:55:17;46.83;;;25.10;;
47287;SDS011;33020;53.008;13.558;2022-12-16T13:58:05;53.37;;;27.20;;
47287;SDS011;33020;53.008;13.558;2022-12-16T14:00:53;56.87;;;26.87;;
47287;SDS011;33020;53.008;13.558;2022-12-16T14:03:41;55.27;;;28.23;;
47287;SDS011;33020;53.008;13.558;2022-12-16T14:06:29;59.53;;;26.60;;
47287;SDS011;33020;53.008;13.558;2022-12-16T14:09:37;53.30;;;27.30;;
47287;SDS011;33020;53.008;13.558;2022-12-16T14:12:26;51.83;;;26.57;;
47287;SDS011;33020;53.008;13.558;2022-12-16T14:15:23;56.97;;;27.53;;
47287;SDS011;33020;53.008;13.558;2022-12-16T14:21:10;57.17;;;28.27;;
47287;SDS011;33020;53.008;13.558;2022-12-16T14:23:59;55.20;;;26.63;;
47287;SDS011;33020;53.008;13.558;2022-12-16T14:26:48;54.23;;;28.17;;
47287;SDS011;33020;53.008;13.558;2022-12-16T14:29:34;54.73;;;27.63;;
47287;SDS011;33020;53.008;13.558;2022-12-16T14:32:23;55.60;;;26.50;;
47287;SDS011;33020;53.008;13.558;2022-12-16T14:41:22;52.87;;;26.60;;
47287;SDS011;33020;53.008;13.558;2022-12-16T14:44:14;56.60;;;28.33;;
47287;SDS011;33020;53.008;13.558;2022-12-16T14:47:25;50.90;;;26.77;;
47287;SDS011;33020;53.008;13.558;2022-12-16T14:50:20;53.27;;;27.17;;
47287;SDS011;33020;53.008;13.558;2022-12-16T14:53:17;59.27;;;28.27;;
47287;SDS011;33020;53.008;13.558;2022-12-16T14:56:09;61.10;;;27.97;;
47287;SDS011;33020;53.008;13.558;2022-12-16T14:59:32;51.33;;;27.23;;
47287;SDS011;33020;53.008;13.558;2022-12-16T15:02:27;56.40;;;28.37;;
47287;SDS011;33020;53.008;13.558;2022-12-16T15:05:21;56.43;;;26.23;;
47287;SDS011;33020;53.008;13.558;2022-12-16T15:08:14;56.10;;;26.57;;
47287;SDS011;33020;53.008;13.558;2022-12-16T15:11:00;50.27;;;26.70;;
47287;SDS011;33020;53.008;13.558;2022-12-16T15:13:47;57.53;;;26.93;;
47287;SDS011;33020;53.008;13.558;2022-12-16T15:16:38;53.33;;;27.73;;
47287;SDS011;33020;53.008;13.558;2022-12-16T15:19:23;53.20;;;25.87;;
47287;SDS011;33020;53.008;13.558;2022-12-16T15:22:12;71.40;;;28.13;;
47287;SDS011;33020;53.008;13.558;2022-12-16T15:24:59;60.80;;;27.00;;
47287;SDS011;33020;53.008;13.558;2022-12-16T15:27:51;58.97;;;30.97;;
47287;SDS011;33020;53.008;13.558;2022-12-16T15:30:41;59.33;;;28.37;;
47287;SDS011;33020;53.008;13.558;2022-12-16T15:33:32;55.00;;;28.37;;
47287;SDS011;33020;53.008;13.558;2022-12-16T15:39:18;56.50;;;26.97;;
47287;SDS011;33020;53.008;13.558;2022-12-16T15:42:05;50.70;;;25.60;;
47287;SDS011;33020;53.008;13.558;2022-12-16T15:45:03;58.67;;;27.80;;
47287;SDS011;33020;53.008;13.558;2022-12-16T15:47:49;56.83;;;26.77;;
47287;SDS011;33020;53.008;13.558;2022-12-16T15:50:51;66.10;;;28.63;;
47287;SDS011;33020;53.008;13.558;2022-12-16T15:53:37;56.80;;;27.00;;
47287;SDS011;33020;53.008;13.558;2022-12-16T15:56:24;57.93;;;27.90;;
47287;SDS011;33020;53.008;13.558;2022-12-16T15:59:21;56.87;;;27.00;;
47287;SDS011;33020;53.008;13.558;2022-12-16T16:05:13;63.83;;;27.90;;
47287;SDS011;33020;53.008;13.558;2022-12-16T16:08:00;55.15;;;25.63;;
47287;SDS011;33020;53.008;13.558;2022-12-16T16:10:45;55.53;;;27.27;;
47287;SDS011;33020;53.008;13.558;2022-12-16T16:13:31;47.50;;;25.60;;
47287;SDS011;33020;53.008;13.558;2022-12-16T16:16:16;56.77;;;25.83;;
47287;SDS011;33020;53.008;13.558;2022-12-16T16:19:02;58.33;;;27.63;;
47287;SDS011;33020;53.008;13.558;2022-12-16T16:21:48;42.80;;;22.97;;
47287;SDS011;33020;53.008;13.558;2022-12-16T16:24:33;58.07;;;28.37;;
47287;SDS011;33020;53.008;13.558;2022-12-16T16:27:18;62.90;;;28.23;;
47287;SDS011;33020;53.008;13.558;2022-12-16T16:30:04;49.70;;;25.97;;
47287;SDS011;33020;53.008;13.558;2022-12-16T16:32:49;55.03;;;27.10;;
47287;SDS011;33020;53.008;13.558;2022-12-16T16:35:35;52.33;;;25.87;;
47287;SDS011;33020;53.008;13.558;2022-12-16T16:38:20;51.53;;;26.53;;
47287;SDS011;33020;53.008;13.558;2022-12-16T16:41:07;51.53;;;25.30;;
47287;SDS011;33020;53.008;13.558;2022-12-16T16:43:58;53.30;;;27.43;;
47287;SDS011;33020;53.008;13.558;2022-12-16T16:46:45;50.30;;;26.07;;
47287;SDS011;33020;53.008;13.558;2022-12-16T16:49:32;49.87;;;26.10;;
47287;SDS011;33020;53.008;13.558;2022-12-16T16:52:26;52.20;;;24.40;;
47287;SDS011;33020;53.008;13.558;2022-12-16T16:55:19;48.23;;;24.97;;
47287;SDS011;33020;53.008;13.558;2022-12-16T16:58:07;57.40;;;26.00;;
47287;SDS011;33020;53.008;13.558;2022-12-16T17:00:56;53.03;;;26.30;;
47287;SDS011;33020;53.008;13.558;2022-12-16T17:03:42;52.03;;;25.80;;
47287;SDS011;33020;53.008;13.558;2022-12-16T17:06:27;56.90;;;26.70;;
47287;SDS011;33020;53.008;13.558;2022-12-16T17:09:13;55.57;;;26.93;;
47287;SDS011;33020;53.008;13.558;2022-12-16T17:11:58;48.77;;;26.60;;
47287;SDS011;33020;53.008;13.558;2022-12-16T17:14:43;49.20;;;26.53;;
47287;SDS011;33020;53.008;13.558;2022-12-16T17:17:29;47.50;;;24.30;;
47287;SDS011;33020;53.008;13.558;2022-12-16T17:20:14;53.17;;;27.33;;
47287;SDS011;33020;53.008;13.558;2022-12-16T17:23:02;52.77;;;26.13;;
47287;SDS011;33020;53.008;13.558;2022-12-16T17:25:48;50.83;;;25.87;;
47287;SDS011;33020;53.008;13.558;2022-12-16T17:28:33;50.33;;;25.03;;
47287;SDS011;33020;53.008;13.558;2022-12-16T17:31:19;53.63;;;25.53;;
47287;SDS011;33020;53.008;13.558;2022-12-16T17:34:04;52.10;;;24.50;;
47287;SDS011;33020;53.008;13.558;2022-12-16T17:36:50;55.37;;;25.80;;
47287;SDS011;33020;53.008;13.558;2022-12-16T17:39:35;48.20;;;25.33;;
47287;SDS011;33020;53.008;13.558;2022-12-16T17:42:20;55.03;;;26.70;;